sensor_id;sensor_type;location;lat;lon;timestamp;P1;durP1;ratioP1;P2;durP2;ratioP2
13014;SDS011;6573;57.696;11.950;2023-12-20T00:00:32;21.00;;;4.40;;
13014;SDS011;6573;57.696;11.950;2023-12-20T00:03:01;18.07;;;4.10;;
13014;SDS011;6573;57.696;11.950;2023-12-20T00:05:30;21.47;;;4.27;;
13014;SDS011;6573;57.696;11.950;2023-12-20T00:08:00;19.67;;;4.60;;
13014;SDS011;6573;57.696;11.950;2023-12-20T00:10:29;24.47;;;5.00;;
13014;SDS011;6573;57.696;11.950;2023-12-20T00:12:58;21.77;;;4.17;;
13014;SDS011;6573;57.696;11.950;2023-12-20T00:15:26;22.93;;;4.63;;
13014;SDS011;6573;57.696;11.950;2023-12-20T00:17:57;21.00;;;4.10;;
13014;SDS011;6573;57.696;11.950;2023-12-20T00:20:25;20.83;;;4.47;;
13014;SDS011;6573;57.696;11.950;2023-12-20T00:22:55;18.43;;;3.90;;
13014;SDS011;6573;57.696;11.950;2023-12-20T00:25:24;18.77;;;4.57;;
13014;SDS011;6573;57.696;11.950;2023-12-20T00:27:53;19.60;;;4.80;;
13014;SDS011;6573;57.696;11.950;2023-12-20T00:30:22;18.33;;;4.20;;
13014;SDS011;6573;57.696;11.950;2023-12-20T00:32:50;20.73;;;4.23;;
13014;SDS011;6573;57.696;11.950;2023-12-20T00:35:20;21.00;;;4.60;;
13014;SDS011;6573;57.696;11.950;2023-12-20T00:37:49;20.07;;;4.53;;
13014;SDS011;6573;57.696;11.950;2023-12-20T00:40:18;28.27;;;4.53;;
13014;SDS011;6573;57.696;11.950;2023-12-20T00:42:47;19.43;;;4.47;;
13014;SDS011;6573;57.696;11.950;2023-12-20T00:45:16;21.37;;;4.10;;
13014;SDS011;6573;57.696;11.950;2023-12-20T00:47:44;20.23;;;4.50;;
13014;SDS011;6573;57.696;11.950;2023-12-20T00:50:13;20.87;;;4.60;;
13014;SDS011;6573;57.696;11.950;2023-12-20T00:52:44;21.70;;;4.87;;
13014;SDS011;6573;57.696;11.950;2023-12-20T00:55:13;24.80;;;4.37;;
13014;SDS011;6573;57.696;11.950;2023-12-20T00:57:42;25.47;;;5.10;;
13014;SDS011;6573;57.696;11.950;2023-12-20T01:00:11;25.43;;;4.93;;
13014;SDS011;6573;57.696;11.950;2023-12-20T01:02:40;22.00;;;4.70;;
13014;SDS011;6573;57.696;11.950;2023-12-20T01:05:09;23.87;;;4.80;;
13014;SDS011;6573;57.696;11.950;2023-12-20T01:07:37;24.57;;;4.90;;
13014;SDS011;6573;57.696;11.950;2023-12-20T01:10:08;19.50;;;4.33;;
13014;SDS011;6573;57.696;11.950;2023-12-20T01:12:36;23.60;;;5.17;;
13014;SDS011;6573;57.696;11.950;2023-12-20T01:15:05;20.43;;;4.20;;
13014;SDS011;6573;57.696;11.950;2023-12-20T01:17:34;20.77;;;4.80;;
13014;SDS011;6573;57.696;11.950;2023-12-20T01:20:03;18.50;;;3.97;;
13014;SDS011;6573;57.696;11.950;2023-12-20T01:22:32;19.93;;;4.23;;
13014;SDS011;6573;57.696;11.950;2023-12-20T01:25:02;19.33;;;4.10;;
13014;SDS011;6573;57.696;11.950;2023-12-20T01:27:32;17.70;;;3.97;;
13014;SDS011;6573;57.696;11.950;2023-12-20T01:30:01;18.77;;;4.60;;
13014;SDS011;6573;57.696;11.950;2023-12-20T01:32:30;23.03;;;4.23;;
13014;SDS011;6573;57.696;11.950;2023-12-20T01:34:59;22.13;;;4.70;;
13014;SDS011;6573;57.696;11.950;2023-12-20T01:37:29;19.03;;;4.07;;
13014;SDS011;6573;57.696;11.950;2023-12-20T01:39:57;21.13;;;4.10;;
13014;SDS011;6573;57.696;11.950;2023-12-20T01:42:26;20.27;;;4.43;;
13014;SDS011;6573;57.696;11.950;2023-12-20T01:44:57;18.13;;;4.33;;
13014;SDS011;6573;57.696;11.950;2023-12-20T01:47:25;20.90;;;4.43;;
13014;SDS011;6573;57.696;11.950;2023-12-20T01:49:54;18.70;;;4.13;;
13014;SDS011;6573;57.696;11.950;2023-12-20T01:52:24;23.63;;;4.50;;
13014;SDS011;6573;57.696;11.950;2023-12-20T01:54:55;16.80;;;4.20;;
13014;SDS011;6573;57.696;11.950;2023-12-20T01:57:29;18.63;;;4.10;;
13014;SDS011;6573;57.696;11.950;2023-12-20T02:00:00;21.03;;;4.90;;
13014;SDS011;6573;57.696;11.950;2023-12-20T02:02:30;17.23;;;4.03;;
13014;SDS011;6573;57.696;11.950;2023-12-20T02:04:59;26.53;;;4.77;;
13014;SDS011;6573;57.696;11.950;2023-12-20T02:07:29;18.40;;;3.90;;
13014;SDS011;6573;57.696;11.950;2023-12-20T02:09:59;21.47;;;4.70;;
13014;SDS011;6573;57.696;11.950;2023-12-20T02:12:28;15.73;;;3.90;;
13014;SDS011;6573;57.696;11.950;2023-12-20T02:14:57;18.30;;;4.00;;
13014;SDS011;6573;57.696;11.950;2023-12-20T02:17:27;20.57;;;4.53;;
13014;SDS011;6573;57.696;11.950;2023-12-20T02:19:57;21.30;;;4.30;;
13014;SDS011;6573;57.696;11.950;2023-12-20T02:22:28;18.67;;;4.00;;
13014;SDS011;6573;57.696;11.950;2023-12-20T02:24:56;19.40;;;3.73;;
13014;SDS011;6573;57.696;11.950;2023-12-20T02:27:25;20.67;;;4.17;;
13014;SDS011;6573;57.696;11.950;2023-12-20T02:29:55;19.37;;;4.40;;
13014;SDS011;6573;57.696;11.950;2023-12-20T02:32:24;22.20;;;4.40;;
13014;SDS011;6573;57.696;11.950;2023-12-20T02:34:54;17.70;;;3.77;;
13014;SDS011;6573;57.696;11.950;2023-12-20T02:37:23;18.93;;;4.13;;
13014;SDS011;6573;57.696;11.950;2023-12-20T02:39:53;16.73;;;4.40;;
13014;SDS011;6573;57.696;11.950;2023-12-20T02:42:22;14.93;;;3.70;;
13014;SDS011;6573;57.696;11.950;2023-12-20T02:44:51;20.47;;;4.43;;
13014;SDS011;6573;57.696;11.950;2023-12-20T02:47:19;16.27;;;3.97;;
13014;SDS011;6573;57.696;11.950;2023-12-20T02:49:48;23.33;;;4.87;;
13014;SDS011;6573;57.696;11.950;2023-12-20T02:52:17;19.47;;;4.70;;
13014;SDS011;6573;57.696;11.950;2023-12-20T02:54:47;17.97;;;4.47;;
13014;SDS011;6573;57.696;11.950;2023-12-20T02:57:17;20.07;;;4.30;;
13014;SDS011;6573;57.696;11.950;2023-12-20T02:59:46;18.87;;;4.10;;
13014;SDS011;6573;57.696;11.950;2023-12-20T03:02:15;18.57;;;4.07;;
13014;SDS011;6573;57.696;11.950;2023-12-20T03:04:43;18.90;;;4.20;;
13014;SDS011;6573;57.696;11.950;2023-12-20T03:07:12;16.83;;;4.10;;
13014;SDS011;6573;57.696;11.950;2023-12-20T03:09:40;16.87;;;3.60;;
13014;SDS011;6573;57.696;11.950;2023-12-20T03:12:30;18.33;;;4.13;;
13014;SDS011;6573;57.696;11.950;2023-12-20T03:14:59;17.03;;;4.00;;
13014;SDS011;6573;57.696;11.950;2023-12-20T03:17:27;18.90;;;3.73;;
13014;SDS011;6573;57.696;11.950;2023-12-20T03:19:56;17.00;;;3.70;;
13014;SDS011;6573;57.696;11.950;2023-12-20T03:22:24;15.23;;;4.07;;
13014;SDS011;6573;57.696;11.950;2023-12-20T03:24:53;18.33;;;3.77;;
13014;SDS011;6573;57.696;11.950;2023-12-20T03:27:21;16.17;;;3.70;;
13014;SDS011;6573;57.696;11.950;2023-12-20T03:29:52;19.60;;;4.00;;
13014;SDS011;6573;57.696;11.950;2023-12-20T03:32:21;14.63;;;3.73;;
13014;SDS011;6573;57.696;11.950;2023-12-20T03:34:49;17.60;;;3.30;;
13014;SDS011;6573;57.696;11.950;2023-12-20T03:37:18;13.73;;;3.30;;
13014;SDS011;6573;57.696;11.950;2023-12-20T03:39:47;16.17;;;3.80;;
13014;SDS011;6573;57.696;11.950;2023-12-20T03:42:16;15.90;;;3.30;;
13014;SDS011;6573;57.696;11.950;2023-12-20T03:44:45;14.97;;;3.50;;
13014;SDS011;6573;57.696;11.950;2023-12-20T03:47:16;10.07;;;2.93;;
13014;SDS011;6573;57.696;11.950;2023-12-20T03:49:48;16.07;;;3.40;;
13014;SDS011;6573;57.696;11.950;2023-12-20T03:52:17;13.07;;;3.03;;
13014;SDS011;6573;57.696;11.950;2023-12-20T03:54:46;14.27;;;3.30;;
13014;SDS011;6573;57.696;11.950;2023-12-20T03:57:14;15.70;;;3.37;;
13014;SDS011;6573;57.696;11.950;2023-12-20T03:59:43;15.80;;;3.30;;
13014;SDS011;6573;57.696;11.950;2023-12-20T04:02:11;15.17;;;3.17;;
13014;SDS011;6573;57.696;11.950;2023-12-20T04:04:41;13.50;;;2.87;;
13014;SDS011;6573;57.696;11.950;2023-12-20T04:07:10;14.40;;;3.23;;
13014;SDS011;6573;57.696;11.950;2023-12-20T04:09:40;10.47;;;2.70;;
13014;SDS011;6573;57.696;11.950;2023-12-20T04:12:08;12.33;;;3.10;;
13014;SDS011;6573;57.696;11.950;2023-12-20T04:14:37;12.37;;;2.83;;
13014;SDS011;6573;57.696;11.950;2023-12-20T04:17:05;12.83;;;2.90;;
13014;SDS011;6573;57.696;11.950;2023-12-20T04:19:34;13.70;;;2.50;;
13014;SDS011;6573;57.696;11.950;2023-12-20T04:22:04;13.37;;;2.90;;
13014;SDS011;6573;57.696;11.950;2023-12-20T04:24:32;13.53;;;2.90;;
13014;SDS011;6573;57.696;11.950;2023-12-20T04:27:01;11.90;;;2.90;;
13014;SDS011;6573;57.696;11.950;2023-12-20T04:29:29;12.03;;;2.43;;
13014;SDS011;6573;57.696;11.950;2023-12-20T04:31:58;12.57;;;2.63;;
13014;SDS011;6573;57.696;11.950;2023-12-20T04:34:26;11.10;;;2.97;;
13014;SDS011;6573;57.696;11.950;2023-12-20T04:36:56;10.53;;;2.70;;
13014;SDS011;6573;57.696;11.950;2023-12-20T04:39:26;10.80;;;2.70;;
13014;SDS011;6573;57.696;11.950;2023-12-20T04:41:54;9.40;;;2.30;;
13014;SDS011;6573;57.696;11.950;2023-12-20T04:44:23;11.37;;;2.83;;
13014;SDS011;6573;57.696;11.950;2023-12-20T04:46:51;14.30;;;3.43;;
13014;SDS011;6573;57.696;11.950;2023-12-20T04:49:20;14.57;;;2.70;;
13014;SDS011;6573;57.696;11.950;2023-12-20T04:51:49;15.63;;;2.83;;
13014;SDS011;6573;57.696;11.950;2023-12-20T04:54:17;17.70;;;3.40;;
13014;SDS011;6573;57.696;11.950;2023-12-20T04:56:47;13.10;;;2.73;;
13014;SDS011;6573;57.696;11.950;2023-12-20T04:59:17;14.13;;;3.10;;
13014;SDS011;6573;57.696;11.950;2023-12-20T05:01:46;13.20;;;2.77;;
13014;SDS011;6573;57.696;11.950;2023-12-20T05:04:14;14.13;;;3.30;;
13014;SDS011;6573;57.696;11.950;2023-12-20T05:06:43;16.50;;;3.47;;
13014;SDS011;6573;57.696;11.950;2023-12-20T05:09:11;15.97;;;3.60;;
13014;SDS011;6573;57.696;11.950;2023-12-20T05:11:40;14.63;;;3.77;;
13014;SDS011;6573;57.696;11.950;2023-12-20T05:14:10;16.87;;;3.50;;
13014;SDS011;6573;57.696;11.950;2023-12-20T05:16:38;21.73;;;3.90;;
13014;SDS011;6573;57.696;11.950;2023-12-20T05:19:07;18.67;;;3.60;;
13014;SDS011;6573;57.696;11.950;2023-12-20T05:21:35;19.30;;;4.27;;
13014;SDS011;6573;57.696;11.950;2023-12-20T05:24:04;16.57;;;3.60;;
13014;SDS011;6573;57.696;11.950;2023-12-20T05:26:33;21.27;;;3.90;;
13014;SDS011;6573;57.696;11.950;2023-12-20T05:29:01;19.23;;;3.47;;
13014;SDS011;6573;57.696;11.950;2023-12-20T05:31:33;19.20;;;3.93;;
13014;SDS011;6573;57.696;11.950;2023-12-20T05:34:02;22.23;;;3.83;;
13014;SDS011;6573;57.696;11.950;2023-12-20T05:39:23;18.87;;;3.67;;
13014;SDS011;6573;57.696;11.950;2023-12-20T05:41:52;19.90;;;3.83;;
13014;SDS011;6573;57.696;11.950;2023-12-20T05:44:21;16.27;;;3.83;;
13014;SDS011;6573;57.696;11.950;2023-12-20T05:46:51;20.83;;;4.03;;
13014;SDS011;6573;57.696;11.950;2023-12-20T05:49:19;17.57;;;3.50;;
13014;SDS011;6573;57.696;11.950;2023-12-20T05:51:48;17.77;;;3.77;;
13014;SDS011;6573;57.696;11.950;2023-12-20T05:54:17;18.30;;;3.90;;
13014;SDS011;6573;57.696;11.950;2023-12-20T05:56:46;15.30;;;3.33;;
13014;SDS011;6573;57.696;11.950;2023-12-20T05:59:15;15.67;;;3.50;;
13014;SDS011;6573;57.696;11.950;2023-12-20T06:01:44;14.90;;;3.23;;
13014;SDS011;6573;57.696;11.950;2023-12-20T06:04:14;17.30;;;3.30;;
13014;SDS011;6573;57.696;11.950;2023-12-20T06:06:43;15.40;;;3.37;;
13014;SDS011;6573;57.696;11.950;2023-12-20T06:09:12;13.70;;;3.10;;
13014;SDS011;6573;57.696;11.950;2023-12-20T06:11:41;14.47;;;3.20;;
13014;SDS011;6573;57.696;11.950;2023-12-20T06:14:10;13.70;;;3.30;;
13014;SDS011;6573;57.696;11.950;2023-12-20T06:16:39;18.13;;;3.17;;
13014;SDS011;6573;57.696;11.950;2023-12-20T06:19:07;15.47;;;3.00;;
13014;SDS011;6573;57.696;11.950;2023-12-20T06:21:37;11.30;;;3.00;;
13014;SDS011;6573;57.696;11.950;2023-12-20T06:24:13;13.13;;;2.60;;
13014;SDS011;6573;57.696;11.950;2023-12-20T06:26:59;13.83;;;2.80;;
13014;SDS011;6573;57.696;11.950;2023-12-20T06:29:38;10.30;;;2.73;;
13014;SDS011;6573;57.696;11.950;2023-12-20T06:32:10;12.00;;;2.50;;
13014;SDS011;6573;57.696;11.950;2023-12-20T06:34:39;14.03;;;2.80;;
13014;SDS011;6573;57.696;11.950;2023-12-20T06:37:09;15.00;;;2.97;;
13014;SDS011;6573;57.696;11.950;2023-12-20T06:39:39;11.63;;;2.70;;
13014;SDS011;6573;57.696;11.950;2023-12-20T06:42:07;13.43;;;3.23;;
13014;SDS011;6573;57.696;11.950;2023-12-20T06:44:36;16.33;;;3.40;;
13014;SDS011;6573;57.696;11.950;2023-12-20T06:47:05;18.17;;;3.47;;
13014;SDS011;6573;57.696;11.950;2023-12-20T06:49:34;16.17;;;3.23;;
13014;SDS011;6573;57.696;11.950;2023-12-20T06:52:03;19.93;;;3.30;;
13014;SDS011;6573;57.696;11.950;2023-12-20T06:54:36;21.90;;;3.87;;
13014;SDS011;6573;57.696;11.950;2023-12-20T06:57:17;20.20;;;4.20;;
13014;SDS011;6573;57.696;11.950;2023-12-20T06:59:52;17.57;;;3.63;;
13014;SDS011;6573;57.696;11.950;2023-12-20T07:02:29;13.63;;;3.27;;
13014;SDS011;6573;57.696;11.950;2023-12-20T07:04:58;18.47;;;3.87;;
13014;SDS011;6573;57.696;11.950;2023-12-20T07:07:26;14.90;;;2.90;;
13014;SDS011;6573;57.696;11.950;2023-12-20T07:09:56;17.27;;;3.60;;
13014;SDS011;6573;57.696;11.950;2023-12-20T07:12:25;19.03;;;3.40;;
13014;SDS011;6573;57.696;11.950;2023-12-20T07:14:55;14.03;;;3.10;;
13014;SDS011;6573;57.696;11.950;2023-12-20T07:17:23;16.87;;;3.13;;
13014;SDS011;6573;57.696;11.950;2023-12-20T07:19:52;15.47;;;3.03;;
13014;SDS011;6573;57.696;11.950;2023-12-20T07:22:21;13.90;;;2.97;;
13014;SDS011;6573;57.696;11.950;2023-12-20T07:24:49;14.17;;;3.17;;
13014;SDS011;6573;57.696;11.950;2023-12-20T07:27:20;13.03;;;2.77;;
13014;SDS011;6573;57.696;11.950;2023-12-20T07:29:49;13.93;;;2.93;;
13014;SDS011;6573;57.696;11.950;2023-12-20T07:32:17;17.07;;;3.20;;
13014;SDS011;6573;57.696;11.950;2023-12-20T07:34:46;13.60;;;2.73;;
13014;SDS011;6573;57.696;11.950;2023-12-20T07:37:15;11.73;;;3.00;;
13014;SDS011;6573;57.696;11.950;2023-12-20T07:39:44;16.73;;;3.27;;
13014;SDS011;6573;57.696;11.950;2023-12-20T07:42:13;15.77;;;3.27;;
13014;SDS011;6573;57.696;11.950;2023-12-20T07:44:43;11.60;;;2.93;;
13014;SDS011;6573;57.696;11.950;2023-12-20T07:47:11;17.03;;;3.30;;
13014;SDS011;6573;57.696;11.950;2023-12-20T07:49:44;18.00;;;3.87;;
13014;SDS011;6573;57.696;11.950;2023-12-20T07:52:13;15.10;;;3.37;;
13014;SDS011;6573;57.696;11.950;2023-12-20T07:54:50;15.60;;;3.23;;
13014;SDS011;6573;57.696;11.950;2023-12-20T07:57:43;16.47;;;3.77;;
13014;SDS011;6573;57.696;11.950;2023-12-20T08:00:13;19.20;;;3.70;;
13014;SDS011;6573;57.696;11.950;2023-12-20T08:02:42;17.77;;;3.73;;
13014;SDS011;6573;57.696;11.950;2023-12-20T08:05:11;22.70;;;4.20;;
13014;SDS011;6573;57.696;11.950;2023-12-20T08:07:42;19.73;;;4.07;;
13014;SDS011;6573;57.696;11.950;2023-12-20T08:10:10;19.77;;;3.83;;
13014;SDS011;6573;57.696;11.950;2023-12-20T08:12:39;23.37;;;4.47;;
13014;SDS011;6573;57.696;11.950;2023-12-20T08:15:08;17.80;;;4.00;;
13014;SDS011;6573;57.696;11.950;2023-12-20T08:17:39;19.50;;;3.90;;
13014;SDS011;6573;57.696;11.950;2023-12-20T08:20:11;22.83;;;3.93;;
13014;SDS011;6573;57.696;11.950;2023-12-20T08:22:48;23.10;;;5.17;;
13014;SDS011;6573;57.696;11.950;2023-12-20T08:25:17;18.17;;;4.33;;
13014;SDS011;6573;57.696;11.950;2023-12-20T08:27:50;20.83;;;4.07;;
13014;SDS011;6573;57.696;11.950;2023-12-20T08:30:20;21.87;;;4.53;;
13014;SDS011;6573;57.696;11.950;2023-12-20T08:32:53;26.07;;;4.23;;
13014;SDS011;6573;57.696;11.950;2023-12-20T08:35:22;26.87;;;4.83;;
13014;SDS011;6573;57.696;11.950;2023-12-20T08:37:51;18.70;;;4.10;;
13014;SDS011;6573;57.696;11.950;2023-12-20T08:40:21;22.40;;;4.53;;
13014;SDS011;6573;57.696;11.950;2023-12-20T08:42:52;19.77;;;3.57;;
13014;SDS011;6573;57.696;11.950;2023-12-20T08:45:21;20.10;;;3.90;;
13014;SDS011;6573;57.696;11.950;2023-12-20T08:47:52;20.93;;;4.20;;
13014;SDS011;6573;57.696;11.950;2023-12-20T08:50:24;18.47;;;3.90;;
13014;SDS011;6573;57.696;11.950;2023-12-20T08:52:53;19.50;;;4.73;;
13014;SDS011;6573;57.696;11.950;2023-12-20T08:55:22;23.60;;;4.40;;
13014;SDS011;6573;57.696;11.950;2023-12-20T08:57:50;20.20;;;4.50;;
13014;SDS011;6573;57.696;11.950;2023-12-20T09:00:21;20.50;;;4.30;;
13014;SDS011;6573;57.696;11.950;2023-12-20T09:02:52;20.90;;;4.67;;
13014;SDS011;6573;57.696;11.950;2023-12-20T09:05:21;22.13;;;4.27;;
13014;SDS011;6573;57.696;11.950;2023-12-20T09:07:50;21.50;;;4.77;;
13014;SDS011;6573;57.696;11.950;2023-12-20T09:10:19;23.07;;;5.17;;
13014;SDS011;6573;57.696;11.950;2023-12-20T09:12:49;25.80;;;4.97;;
13014;SDS011;6573;57.696;11.950;2023-12-20T09:15:22;19.87;;;4.70;;
13014;SDS011;6573;57.696;11.950;2023-12-20T09:17:55;25.77;;;4.73;;
13014;SDS011;6573;57.696;11.950;2023-12-20T09:20:23;24.03;;;4.90;;
13014;SDS011;6573;57.696;11.950;2023-12-20T09:22:52;25.40;;;4.87;;
13014;SDS011;6573;57.696;11.950;2023-12-20T09:25:20;23.67;;;5.17;;
13014;SDS011;6573;57.696;11.950;2023-12-20T09:27:51;23.07;;;4.67;;
13014;SDS011;6573;57.696;11.950;2023-12-20T09:30:20;17.97;;;4.97;;
13014;SDS011;6573;57.696;11.950;2023-12-20T09:32:54;23.37;;;4.47;;
13014;SDS011;6573;57.696;11.950;2023-12-20T09:35:23;24.93;;;5.87;;
13014;SDS011;6573;57.696;11.950;2023-12-20T09:37:53;26.37;;;5.43;;
13014;SDS011;6573;57.696;11.950;2023-12-20T09:40:21;25.27;;;5.33;;
13014;SDS011;6573;57.696;11.950;2023-12-20T09:42:56;23.40;;;5.30;;
13014;SDS011;6573;57.696;11.950;2023-12-20T09:45:25;25.17;;;5.13;;
13014;SDS011;6573;57.696;11.950;2023-12-20T09:47:55;23.00;;;5.27;;
13014;SDS011;6573;57.696;11.950;2023-12-20T09:50:26;25.00;;;5.27;;
13014;SDS011;6573;57.696;11.950;2023-12-20T09:52:57;20.07;;;4.33;;
13014;SDS011;6573;57.696;11.950;2023-12-20T09:55:26;22.43;;;5.23;;
13014;SDS011;6573;57.696;11.950;2023-12-20T09:57:56;25.53;;;5.33;;
13014;SDS011;6573;57.696;11.950;2023-12-20T10:00:24;23.30;;;5.00;;
13014;SDS011;6573;57.696;11.950;2023-12-20T10:02:57;24.90;;;5.53;;
13014;SDS011;6573;57.696;11.950;2023-12-20T10:05:29;23.50;;;5.27;;
13014;SDS011;6573;57.696;11.950;2023-12-20T10:07:59;22.27;;;4.93;;
13014;SDS011;6573;57.696;11.950;2023-12-20T10:10:29;26.10;;;5.70;;
13014;SDS011;6573;57.696;11.950;2023-12-20T10:13:11;24.80;;;5.27;;
13014;SDS011;6573;57.696;11.950;2023-12-20T10:15:40;24.53;;;5.57;;
13014;SDS011;6573;57.696;11.950;2023-12-20T10:18:11;29.73;;;5.60;;
13014;SDS011;6573;57.696;11.950;2023-12-20T10:20:40;25.53;;;5.27;;
13014;SDS011;6573;57.696;11.950;2023-12-20T10:23:10;22.17;;;5.00;;
13014;SDS011;6573;57.696;11.950;2023-12-20T10:25:40;18.83;;;5.00;;
13014;SDS011;6573;57.696;11.950;2023-12-20T10:28:09;25.80;;;5.83;;
13014;SDS011;6573;57.696;11.950;2023-12-20T10:30:39;21.83;;;5.77;;
13014;SDS011;6573;57.696;11.950;2023-12-20T10:33:11;22.27;;;5.30;;
13014;SDS011;6573;57.696;11.950;2023-12-20T10:35:39;23.37;;;5.30;;
13014;SDS011;6573;57.696;11.950;2023-12-20T10:38:12;23.90;;;5.47;;
13014;SDS011;6573;57.696;11.950;2023-12-20T10:40:43;27.13;;;5.27;;
13014;SDS011;6573;57.696;11.950;2023-12-20T10:43:13;21.10;;;5.37;;
13014;SDS011;6573;57.696;11.950;2023-12-20T10:45:43;25.50;;;5.30;;
13014;SDS011;6573;57.696;11.950;2023-12-20T10:48:13;24.97;;;5.40;;
13014;SDS011;6573;57.696;11.950;2023-12-20T10:50:43;25.43;;;5.87;;
13014;SDS011;6573;57.696;11.950;2023-12-20T10:53:12;23.27;;;5.33;;
13014;SDS011;6573;57.696;11.950;2023-12-20T10:55:43;19.57;;;5.43;;
13014;SDS011;6573;57.696;11.950;2023-12-20T10:58:14;26.77;;;6.10;;
13014;SDS011;6573;57.696;11.950;2023-12-20T11:00:42;24.57;;;5.33;;
13014;SDS011;6573;57.696;11.950;2023-12-20T11:03:15;25.43;;;6.20;;
13014;SDS011;6573;57.696;11.950;2023-12-20T11:08:27;25.67;;;5.80;;
13014;SDS011;6573;57.696;11.950;2023-12-20T11:11:02;27.40;;;6.17;;
13014;SDS011;6573;57.696;11.950;2023-12-20T11:13:36;26.70;;;6.53;;
13014;SDS011;6573;57.696;11.950;2023-12-20T11:16:08;25.00;;;6.00;;
13014;SDS011;6573;57.696;11.950;2023-12-20T11:18:38;23.60;;;6.03;;
13014;SDS011;6573;57.696;11.950;2023-12-20T11:21:09;26.50;;;6.50;;
13014;SDS011;6573;57.696;11.950;2023-12-20T11:23:40;28.83;;;7.17;;
13014;SDS011;6573;57.696;11.950;2023-12-20T11:26:11;27.60;;;6.53;;
13014;SDS011;6573;57.696;11.950;2023-12-20T11:28:45;27.67;;;6.47;;
13014;SDS011;6573;57.696;11.950;2023-12-20T11:31:14;23.37;;;6.47;;
13014;SDS011;6573;57.696;11.950;2023-12-20T11:33:45;25.23;;;6.50;;
13014;SDS011;6573;57.696;11.950;2023-12-20T11:36:18;21.37;;;5.90;;
13014;SDS011;6573;57.696;11.950;2023-12-20T11:38:49;18.33;;;5.80;;
13014;SDS011;6573;57.696;11.950;2023-12-20T11:41:22;17.77;;;5.00;;
13014;SDS011;6573;57.696;11.950;2023-12-20T11:43:52;15.83;;;4.90;;
13014;SDS011;6573;57.696;11.950;2023-12-20T11:46:22;20.37;;;5.50;;
13014;SDS011;6573;57.696;11.950;2023-12-20T11:48:52;17.47;;;4.83;;
13014;SDS011;6573;57.696;11.950;2023-12-20T11:51:21;21.67;;;6.30;;
13014;SDS011;6573;57.696;11.950;2023-12-20T11:53:52;22.67;;;5.30;;
13014;SDS011;6573;57.696;11.950;2023-12-20T11:56:22;21.03;;;5.23;;
13014;SDS011;6573;57.696;11.950;2023-12-20T11:58:50;18.60;;;5.70;;
13014;SDS011;6573;57.696;11.950;2023-12-20T12:01:19;18.50;;;5.17;;
13014;SDS011;6573;57.696;11.950;2023-12-20T12:04:03;19.73;;;4.87;;
13014;SDS011;6573;57.696;11.950;2023-12-20T12:06:33;18.73;;;5.13;;
13014;SDS011;6573;57.696;11.950;2023-12-20T12:09:02;20.23;;;5.63;;
13014;SDS011;6573;57.696;11.950;2023-12-20T12:11:31;18.63;;;5.43;;
13014;SDS011;6573;57.696;11.950;2023-12-20T12:14:00;20.70;;;4.93;;
13014;SDS011;6573;57.696;11.950;2023-12-20T12:16:30;20.83;;;5.03;;
13014;SDS011;6573;57.696;11.950;2023-12-20T12:18:59;19.57;;;5.10;;
13014;SDS011;6573;57.696;11.950;2023-12-20T12:21:29;16.23;;;4.93;;
13014;SDS011;6573;57.696;11.950;2023-12-20T12:24:06;15.07;;;4.80;;
13014;SDS011;6573;57.696;11.950;2023-12-20T12:26:35;16.07;;;5.13;;
13014;SDS011;6573;57.696;11.950;2023-12-20T12:29:06;19.13;;;4.80;;
13014;SDS011;6573;57.696;11.950;2023-12-20T12:31:36;18.33;;;4.00;;
13014;SDS011;6573;57.696;11.950;2023-12-20T12:34:04;15.77;;;4.50;;
13014;SDS011;6573;57.696;11.950;2023-12-20T12:36:37;18.20;;;4.67;;
13014;SDS011;6573;57.696;11.950;2023-12-20T12:39:05;18.77;;;4.37;;
13014;SDS011;6573;57.696;11.950;2023-12-20T12:41:34;14.50;;;4.37;;
13014;SDS011;6573;57.696;11.950;2023-12-20T12:44:02;16.03;;;4.50;;
13014;SDS011;6573;57.696;11.950;2023-12-20T12:46:42;14.87;;;4.57;;
13014;SDS011;6573;57.696;11.950;2023-12-20T12:49:11;13.20;;;3.77;;
13014;SDS011;6573;57.696;11.950;2023-12-20T12:51:41;13.20;;;3.90;;
13014;SDS011;6573;57.696;11.950;2023-12-20T12:54:09;14.73;;;4.20;;
13014;SDS011;6573;57.696;11.950;2023-12-20T12:56:39;8.87;;;3.07;;
13014;SDS011;6573;57.696;11.950;2023-12-20T12:59:08;10.43;;;3.27;;
13014;SDS011;6573;57.696;11.950;2023-12-20T13:01:36;11.87;;;3.83;;
13014;SDS011;6573;57.696;11.950;2023-12-20T13:04:06;12.87;;;4.00;;
13014;SDS011;6573;57.696;11.950;2023-12-20T13:06:38;9.97;;;3.73;;
13014;SDS011;6573;57.696;11.950;2023-12-20T13:09:09;10.57;;;3.40;;
13014;SDS011;6573;57.696;11.950;2023-12-20T13:11:37;12.03;;;4.00;;
13014;SDS011;6573;57.696;11.950;2023-12-20T13:14:06;12.73;;;4.30;;
13014;SDS011;6573;57.696;11.950;2023-12-20T13:16:37;15.83;;;4.07;;
13014;SDS011;6573;57.696;11.950;2023-12-20T13:19:05;12.30;;;3.67;;
13014;SDS011;6573;57.696;11.950;2023-12-20T13:21:34;21.30;;;9.93;;
13014;SDS011;6573;57.696;11.950;2023-12-20T13:24:02;12.33;;;3.80;;
13014;SDS011;6573;57.696;11.950;2023-12-20T13:26:33;14.00;;;3.80;;
13014;SDS011;6573;57.696;11.950;2023-12-20T13:29:01;16.77;;;4.10;;
13014;SDS011;6573;57.696;11.950;2023-12-20T13:31:30;17.77;;;4.47;;
13014;SDS011;6573;57.696;11.950;2023-12-20T13:33:59;16.60;;;4.43;;
13014;SDS011;6573;57.696;11.950;2023-12-20T13:36:28;11.60;;;4.13;;
13014;SDS011;6573;57.696;11.950;2023-12-20T13:38:57;12.23;;;5.53;;
13014;SDS011;6573;57.696;11.950;2023-12-20T13:41:25;16.00;;;4.23;;
13014;SDS011;6573;57.696;11.950;2023-12-20T13:43:55;14.93;;;4.70;;
13014;SDS011;6573;57.696;11.950;2023-12-20T13:46:24;13.53;;;3.93;;
13014;SDS011;6573;57.696;11.950;2023-12-20T13:48:52;14.47;;;4.60;;
13014;SDS011;6573;57.696;11.950;2023-12-20T13:51:25;14.63;;;4.17;;
13014;SDS011;6573;57.696;11.950;2023-12-20T13:53:53;14.57;;;4.03;;
13014;SDS011;6573;57.696;11.950;2023-12-20T13:56:22;12.27;;;5.00;;
13014;SDS011;6573;57.696;11.950;2023-12-20T13:58:50;16.83;;;4.73;;
13014;SDS011;6573;57.696;11.950;2023-12-20T14:01:20;15.73;;;4.83;;
13014;SDS011;6573;57.696;11.950;2023-12-20T14:03:49;16.53;;;4.63;;
13014;SDS011;6573;57.696;11.950;2023-12-20T14:06:17;14.53;;;4.43;;
13014;SDS011;6573;57.696;11.950;2023-12-20T14:08:49;15.87;;;3.97;;
13014;SDS011;6573;57.696;11.950;2023-12-20T14:11:17;9.97;;;3.97;;
13014;SDS011;6573;57.696;11.950;2023-12-20T14:13:47;13.70;;;4.17;;
13014;SDS011;6573;57.696;11.950;2023-12-20T14:16:16;11.73;;;4.30;;
13014;SDS011;6573;57.696;11.950;2023-12-20T14:18:46;16.50;;;4.27;;
13014;SDS011;6573;57.696;11.950;2023-12-20T14:21:14;14.03;;;4.17;;
13014;SDS011;6573;57.696;11.950;2023-12-20T14:23:42;15.30;;;4.20;;
13014;SDS011;6573;57.696;11.950;2023-12-20T14:26:15;19.73;;;5.00;;
13014;SDS011;6573;57.696;11.950;2023-12-20T14:28:44;19.40;;;5.00;;
13014;SDS011;6573;57.696;11.950;2023-12-20T14:31:12;20.47;;;4.80;;
13014;SDS011;6573;57.696;11.950;2023-12-20T14:33:41;16.57;;;4.97;;
13014;SDS011;6573;57.696;11.950;2023-12-20T14:36:11;14.43;;;4.53;;
13014;SDS011;6573;57.696;11.950;2023-12-20T14:38:39;18.30;;;5.37;;
13014;SDS011;6573;57.696;11.950;2023-12-20T14:41:08;16.50;;;4.63;;
13014;SDS011;6573;57.696;11.950;2023-12-20T14:43:36;12.30;;;4.40;;
13014;SDS011;6573;57.696;11.950;2023-12-20T14:46:05;14.37;;;5.10;;
13014;SDS011;6573;57.696;11.950;2023-12-20T14:48:33;15.43;;;4.80;;
13014;SDS011;6573;57.696;11.950;2023-12-20T14:51:01;13.50;;;4.60;;
13014;SDS011;6573;57.696;11.950;2023-12-20T14:53:31;17.37;;;5.23;;
13014;SDS011;6573;57.696;11.950;2023-12-20T14:56:03;17.70;;;4.80;;